sensor_id;sensor_type;location;lat;lon;timestamp;P1;durP1;ratioP1;P2;durP2;ratioP2
44222;SDS011;29895;48.804;9.386;2024-01-27T00:01:13;15.77;;;3.22;;
44222;SDS011;29895;48.804;9.386;2024-01-27T00:03:38;14.25;;;4.03;;
44222;SDS011;29895;48.804;9.386;2024-01-27T00:06:04;7.00;;;3.17;;
44222;SDS011;29895;48.804;9.386;2024-01-27T00:08:30;9.52;;;3.47;;
44222;SDS011;29895;48.804;9.386;2024-01-27T00:10:56;7.22;;;2.85;;
44222;SDS011;29895;48.804;9.386;2024-01-27T00:13:21;9.32;;;2.90;;
44222;SDS011;29895;48.804;9.386;2024-01-27T00:15:47;6.85;;;3.40;;
44222;SDS011;29895;48.804;9.386;2024-01-27T00:18:14;10.25;;;3.88;;
44222;SDS011;29895;48.804;9.386;2024-01-27T00:20:41;9.93;;;3.25;;
44222;SDS011;29895;48.804;9.386;2024-01-27T00:23:07;13.20;;;3.67;;
44222;SDS011;29895;48.804;9.386;2024-01-27T00:25:33;10.52;;;3.95;;
44222;SDS011;29895;48.804;9.386;2024-01-27T00:27:59;6.18;;;3.58;;
44222;SDS011;29895;48.804;9.386;2024-01-27T00:30:24;13.68;;;3.92;;
44222;SDS011;29895;48.804;9.386;2024-01-27T00:32:51;13.50;;;3.90;;
44222;SDS011;29895;48.804;9.386;2024-01-27T00:35:17;10.73;;;3.80;;
44222;SDS011;29895;48.804;9.386;2024-01-27T00:37:42;12.85;;;3.40;;
44222;SDS011;29895;48.804;9.386;2024-01-27T00:40:09;7.63;;;3.03;;
44222;SDS011;29895;48.804;9.386;2024-01-27T00:42:35;12.50;;;3.65;;
44222;SDS011;29895;48.804;9.386;2024-01-27T00:45:01;12.25;;;3.50;;
44222;SDS011;29895;48.804;9.386;2024-01-27T00:47:28;5.72;;;3.05;;
44222;SDS011;29895;48.804;9.386;2024-01-27T00:49:54;10.20;;;3.30;;
44222;SDS011;29895;48.804;9.386;2024-01-27T00:52:20;8.15;;;3.17;;
44222;SDS011;29895;48.804;9.386;2024-01-27T00:54:45;9.63;;;3.22;;
44222;SDS011;29895;48.804;9.386;2024-01-27T00:57:11;11.82;;;3.97;;
44222;SDS011;29895;48.804;9.386;2024-01-27T00:59:36;11.52;;;4.15;;
44222;SDS011;29895;48.804;9.386;2024-01-27T01:02:02;11.63;;;2.95;;
44222;SDS011;29895;48.804;9.386;2024-01-27T01:04:28;11.07;;;3.00;;
44222;SDS011;29895;48.804;9.386;2024-01-27T01:06:54;11.65;;;4.18;;
44222;SDS011;29895;48.804;9.386;2024-01-27T01:09:20;14.63;;;4.35;;
44222;SDS011;29895;48.804;9.386;2024-01-27T01:11:45;11.55;;;3.75;;
44222;SDS011;29895;48.804;9.386;2024-01-27T01:14:11;6.25;;;3.50;;
44222;SDS011;29895;48.804;9.386;2024-01-27T01:16:37;12.35;;;3.33;;
44222;SDS011;29895;48.804;9.386;2024-01-27T01:19:03;8.32;;;3.08;;
44222;SDS011;29895;48.804;9.386;2024-01-27T01:21:28;11.05;;;2.70;;
44222;SDS011;29895;48.804;9.386;2024-01-27T01:23:54;11.80;;;3.03;;
44222;SDS011;29895;48.804;9.386;2024-01-27T01:26:20;7.72;;;3.08;;
44222;SDS011;29895;48.804;9.386;2024-01-27T01:28:46;8.40;;;2.65;;
44222;SDS011;29895;48.804;9.386;2024-01-27T01:31:11;8.48;;;3.55;;
44222;SDS011;29895;48.804;9.386;2024-01-27T01:33:37;13.80;;;2.65;;
44222;SDS011;29895;48.804;9.386;2024-01-27T01:36:03;9.57;;;3.03;;
44222;SDS011;29895;48.804;9.386;2024-01-27T01:38:28;10.88;;;2.90;;
44222;SDS011;29895;48.804;9.386;2024-01-27T01:40:54;6.10;;;2.90;;
44222;SDS011;29895;48.804;9.386;2024-01-27T01:43:20;9.02;;;2.95;;
44222;SDS011;29895;48.804;9.386;2024-01-27T01:45:45;8.05;;;2.72;;
44222;SDS011;29895;48.804;9.386;2024-01-27T01:48:11;12.43;;;3.05;;
44222;SDS011;29895;48.804;9.386;2024-01-27T01:50:37;14.07;;;3.28;;
44222;SDS011;29895;48.804;9.386;2024-01-27T01:53:02;8.85;;;2.90;;
44222;SDS011;29895;48.804;9.386;2024-01-27T01:55:29;13.73;;;3.22;;
44222;SDS011;29895;48.804;9.386;2024-01-27T01:57:55;8.55;;;2.92;;
44222;SDS011;29895;48.804;9.386;2024-01-27T02:00:20;10.38;;;2.72;;
44222;SDS011;29895;48.804;9.386;2024-01-27T02:02:46;6.10;;;2.55;;
44222;SDS011;29895;48.804;9.386;2024-01-27T02:05:12;15.18;;;4.13;;
44222;SDS011;29895;48.804;9.386;2024-01-27T02:07:38;14.63;;;2.85;;
44222;SDS011;29895;48.804;9.386;2024-01-27T02:10:03;12.40;;;3.30;;
44222;SDS011;29895;48.804;9.386;2024-01-27T02:12:31;7.93;;;3.10;;
44222;SDS011;29895;48.804;9.386;2024-01-27T02:14:56;7.55;;;2.95;;
44222;SDS011;29895;48.804;9.386;2024-01-27T02:17:22;10.02;;;2.63;;
44222;SDS011;29895;48.804;9.386;2024-01-27T02:19:47;14.95;;;4.45;;
44222;SDS011;29895;48.804;9.386;2024-01-27T02:22:13;10.25;;;3.00;;
44222;SDS011;29895;48.804;9.386;2024-01-27T02:24:39;10.63;;;3.00;;
44222;SDS011;29895;48.804;9.386;2024-01-27T02:27:04;6.05;;;3.10;;
44222;SDS011;29895;48.804;9.386;2024-01-27T02:29:30;11.02;;;3.33;;
44222;SDS011;29895;48.804;9.386;2024-01-27T02:31:56;9.68;;;3.13;;
44222;SDS011;29895;48.804;9.386;2024-01-27T02:34:21;12.82;;;3.22;;
44222;SDS011;29895;48.804;9.386;2024-01-27T02:36:47;14.50;;;3.42;;
44222;SDS011;29895;48.804;9.386;2024-01-27T02:39:13;10.63;;;3.90;;
44222;SDS011;29895;48.804;9.386;2024-01-27T02:41:38;12.88;;;3.08;;
44222;SDS011;29895;48.804;9.386;2024-01-27T02:44:05;9.52;;;3.47;;
44222;SDS011;29895;48.804;9.386;2024-01-27T02:46:31;9.25;;;3.40;;
44222;SDS011;29895;48.804;9.386;2024-01-27T02:48:56;18.13;;;3.05;;
44222;SDS011;29895;48.804;9.386;2024-01-27T02:51:22;16.42;;;3.38;;
44222;SDS011;29895;48.804;9.386;2024-01-27T02:53:48;12.23;;;3.40;;
44222;SDS011;29895;48.804;9.386;2024-01-27T02:56:15;8.95;;;3.22;;
44222;SDS011;29895;48.804;9.386;2024-01-27T02:58:41;12.43;;;3.13;;
44222;SDS011;29895;48.804;9.386;2024-01-27T03:01:07;11.10;;;2.97;;
44222;SDS011;29895;48.804;9.386;2024-01-27T03:03:33;6.47;;;3.17;;
44222;SDS011;29895;48.804;9.386;2024-01-27T03:05:59;10.93;;;3.40;;
44222;SDS011;29895;48.804;9.386;2024-01-27T03:08:24;11.23;;;3.28;;
44222;SDS011;29895;48.804;9.386;2024-01-27T03:10:50;13.57;;;3.00;;
44222;SDS011;29895;48.804;9.386;2024-01-27T03:13:15;17.17;;;3.30;;
44222;SDS011;29895;48.804;9.386;2024-01-27T03:15:41;10.38;;;3.67;;
44222;SDS011;29895;48.804;9.386;2024-01-27T03:18:08;13.93;;;3.08;;
44222;SDS011;29895;48.804;9.386;2024-01-27T03:20:33;10.65;;;4.13;;
44222;SDS011;29895;48.804;9.386;2024-01-27T03:22:59;10.18;;;3.58;;
44222;SDS011;29895;48.804;9.386;2024-01-27T03:25:25;11.55;;;3.50;;
44222;SDS011;29895;48.804;9.386;2024-01-27T03:27:51;16.00;;;4.07;;
44222;SDS011;29895;48.804;9.386;2024-01-27T03:30:17;9.73;;;4.10;;
44222;SDS011;29895;48.804;9.386;2024-01-27T03:32:42;14.60;;;3.65;;
44222;SDS011;29895;48.804;9.386;2024-01-27T03:35:08;17.63;;;3.90;;
44222;SDS011;29895;48.804;9.386;2024-01-27T03:37:34;13.23;;;4.28;;
44222;SDS011;29895;48.804;9.386;2024-01-27T03:40:00;15.93;;;4.40;;
44222;SDS011;29895;48.804;9.386;2024-01-27T03:42:26;14.30;;;4.18;;
44222;SDS011;29895;48.804;9.386;2024-01-27T03:44:52;13.73;;;4.72;;
44222;SDS011;29895;48.804;9.386;2024-01-27T03:47:17;13.80;;;4.10;;
44222;SDS011;29895;48.804;9.386;2024-01-27T03:49:43;16.42;;;3.80;;
44222;SDS011;29895;48.804;9.386;2024-01-27T03:52:09;11.18;;;3.88;;
44222;SDS011;29895;48.804;9.386;2024-01-27T03:54:37;14.27;;;4.93;;
44222;SDS011;29895;48.804;9.386;2024-01-27T03:57:03;12.38;;;3.50;;
44222;SDS011;29895;48.804;9.386;2024-01-27T03:59:29;6.28;;;2.92;;
44222;SDS011;29895;48.804;9.386;2024-01-27T04:01:54;9.02;;;3.60;;
44222;SDS011;29895;48.804;9.386;2024-01-27T04:04:20;12.65;;;3.80;;
44222;SDS011;29895;48.804;9.386;2024-01-27T04:06:46;12.27;;;3.20;;
44222;SDS011;29895;48.804;9.386;2024-01-27T04:09:12;13.55;;;3.53;;
44222;SDS011;29895;48.804;9.386;2024-01-27T04:11:38;8.40;;;3.35;;
44222;SDS011;29895;48.804;9.386;2024-01-27T04:14:05;10.50;;;4.47;;
44222;SDS011;29895;48.804;9.386;2024-01-27T04:16:31;13.63;;;4.50;;
44222;SDS011;29895;48.804;9.386;2024-01-27T04:18:57;13.50;;;5.40;;
44222;SDS011;29895;48.804;9.386;2024-01-27T04:21:23;18.35;;;6.63;;
44222;SDS011;29895;48.804;9.386;2024-01-27T04:23:48;14.73;;;7.35;;
44222;SDS011;29895;48.804;9.386;2024-01-27T04:26:14;15.77;;;7.18;;
44222;SDS011;29895;48.804;9.386;2024-01-27T04:28:40;11.43;;;6.35;;
44222;SDS011;29895;48.804;9.386;2024-01-27T04:31:05;15.77;;;6.75;;
44222;SDS011;29895;48.804;9.386;2024-01-27T04:33:31;14.27;;;6.15;;
44222;SDS011;29895;48.804;9.386;2024-01-27T04:35:57;14.35;;;5.50;;
44222;SDS011;29895;48.804;9.386;2024-01-27T04:38:23;12.02;;;4.80;;
44222;SDS011;29895;48.804;9.386;2024-01-27T04:40:49;13.85;;;4.20;;
44222;SDS011;29895;48.804;9.386;2024-01-27T04:43:15;16.42;;;4.53;;
44222;SDS011;29895;48.804;9.386;2024-01-27T04:45:42;15.27;;;5.70;;
44222;SDS011;29895;48.804;9.386;2024-01-27T04:48:08;11.63;;;6.55;;
44222;SDS011;29895;48.804;9.386;2024-01-27T04:50:34;11.85;;;7.20;;
44222;SDS011;29895;48.804;9.386;2024-01-27T04:52:59;13.27;;;6.90;;
44222;SDS011;29895;48.804;9.386;2024-01-27T04:55:26;12.93;;;7.45;;
44222;SDS011;29895;48.804;9.386;2024-01-27T04:57:52;18.10;;;7.28;;
44222;SDS011;29895;48.804;9.386;2024-01-27T05:00:18;14.43;;;7.10;;
44222;SDS011;29895;48.804;9.386;2024-01-27T05:02:44;10.18;;;5.93;;
44222;SDS011;29895;48.804;9.386;2024-01-27T05:05:11;12.68;;;6.20;;
44222;SDS011;29895;48.804;9.386;2024-01-27T05:07:37;16.63;;;6.32;;
44222;SDS011;29895;48.804;9.386;2024-01-27T05:10:03;12.27;;;6.00;;
44222;SDS011;29895;48.804;9.386;2024-01-27T05:12:30;13.82;;;7.90;;
44222;SDS011;29895;48.804;9.386;2024-01-27T05:14:55;18.00;;;8.63;;
44222;SDS011;29895;48.804;9.386;2024-01-27T05:17:21;13.57;;;7.80;;
44222;SDS011;29895;48.804;9.386;2024-01-27T05:19:47;16.63;;;7.60;;
44222;SDS011;29895;48.804;9.386;2024-01-27T05:22:12;11.23;;;6.18;;
44222;SDS011;29895;48.804;9.386;2024-01-27T05:24:38;11.93;;;6.90;;
44222;SDS011;29895;48.804;9.386;2024-01-27T05:27:03;14.27;;;6.75;;
44222;SDS011;29895;48.804;9.386;2024-01-27T05:29:29;11.25;;;6.90;;
44222;SDS011;29895;48.804;9.386;2024-01-27T05:31:55;11.70;;;6.50;;
44222;SDS011;29895;48.804;9.386;2024-01-27T05:34:20;12.65;;;6.57;;
44222;SDS011;29895;48.804;9.386;2024-01-27T05:36:47;14.02;;;6.53;;
44222;SDS011;29895;48.804;9.386;2024-01-27T05:39:13;11.63;;;6.82;;
44222;SDS011;29895;48.804;9.386;2024-01-27T05:41:38;19.10;;;7.78;;
44222;SDS011;29895;48.804;9.386;2024-01-27T05:44:04;15.75;;;7.55;;
44222;SDS011;29895;48.804;9.386;2024-01-27T05:46:30;16.45;;;7.18;;
44222;SDS011;29895;48.804;9.386;2024-01-27T05:48:55;11.77;;;6.18;;
44222;SDS011;29895;48.804;9.386;2024-01-27T05:51:26;12.73;;;7.10;;
44222;SDS011;29895;48.804;9.386;2024-01-27T05:53:52;17.33;;;7.57;;
44222;SDS011;29895;48.804;9.386;2024-01-27T05:56:18;18.88;;;8.05;;
44222;SDS011;29895;48.804;9.386;2024-01-27T05:58:47;18.20;;;8.48;;
44222;SDS011;29895;48.804;9.386;2024-01-27T06:01:13;13.52;;;7.40;;
44222;SDS011;29895;48.804;9.386;2024-01-27T06:03:42;14.27;;;7.85;;
44222;SDS011;29895;48.804;9.386;2024-01-27T06:06:09;11.60;;;6.80;;
44222;SDS011;29895;48.804;9.386;2024-01-27T06:08:35;12.55;;;6.78;;
44222;SDS011;29895;48.804;9.386;2024-01-27T06:11:01;10.25;;;6.00;;
44222;SDS011;29895;48.804;9.386;2024-01-27T06:13:28;13.18;;;6.45;;
44222;SDS011;29895;48.804;9.386;2024-01-27T06:15:53;15.02;;;7.25;;
44222;SDS011;29895;48.804;9.386;2024-01-27T06:18:19;15.10;;;6.65;;
44222;SDS011;29895;48.804;9.386;2024-01-27T06:20:45;13.80;;;6.68;;
44222;SDS011;29895;48.804;9.386;2024-01-27T06:23:11;12.27;;;6.20;;
44222;SDS011;29895;48.804;9.386;2024-01-27T06:25:37;14.98;;;7.07;;
44222;SDS011;29895;48.804;9.386;2024-01-27T06:28:03;21.15;;;8.25;;
44222;SDS011;29895;48.804;9.386;2024-01-27T06:30:28;17.75;;;8.43;;
44222;SDS011;29895;48.804;9.386;2024-01-27T06:32:54;19.17;;;8.63;;
44222;SDS011;29895;48.804;9.386;2024-01-27T06:35:20;19.20;;;7.53;;
44222;SDS011;29895;48.804;9.386;2024-01-27T06:37:45;16.42;;;7.65;;
44222;SDS011;29895;48.804;9.386;2024-01-27T06:40:12;13.13;;;6.63;;
44222;SDS011;29895;48.804;9.386;2024-01-27T06:42:37;14.15;;;6.97;;
44222;SDS011;29895;48.804;9.386;2024-01-27T06:45:03;13.98;;;6.85;;
44222;SDS011;29895;48.804;9.386;2024-01-27T06:47:29;11.60;;;6.50;;
44222;SDS011;29895;48.804;9.386;2024-01-27T06:49:55;11.98;;;6.65;;
44222;SDS011;29895;48.804;9.386;2024-01-27T06:52:21;15.63;;;6.78;;
44222;SDS011;29895;48.804;9.386;2024-01-27T06:54:47;23.67;;;10.40;;
44222;SDS011;29895;48.804;9.386;2024-01-27T06:59:48;22.35;;;9.02;;
44222;SDS011;29895;48.804;9.386;2024-01-27T07:02:18;17.92;;;8.15;;
44222;SDS011;29895;48.804;9.386;2024-01-27T07:04:53;16.40;;;8.68;;
44222;SDS011;29895;48.804;9.386;2024-01-27T07:07:21;21.35;;;8.35;;
44222;SDS011;29895;48.804;9.386;2024-01-27T07:12:20;16.35;;;7.60;;
44222;SDS011;29895;48.804;9.386;2024-01-27T07:14:46;18.75;;;7.40;;
44222;SDS011;29895;48.804;9.386;2024-01-27T07:17:12;16.48;;;8.05;;
44222;SDS011;29895;48.804;9.386;2024-01-27T07:19:38;17.75;;;7.53;;
44222;SDS011;29895;48.804;9.386;2024-01-27T07:22:04;19.75;;;8.23;;
44222;SDS011;29895;48.804;9.386;2024-01-27T07:24:30;20.48;;;8.10;;
44222;SDS011;29895;48.804;9.386;2024-01-27T07:26:55;16.88;;;7.43;;
44222;SDS011;29895;48.804;9.386;2024-01-27T07:29:23;24.13;;;11.95;;
44222;SDS011;29895;48.804;9.386;2024-01-27T07:31:49;24.10;;;13.38;;
44222;SDS011;29895;48.804;9.386;2024-01-27T07:34:15;21.27;;;11.45;;
44222;SDS011;29895;48.804;9.386;2024-01-27T07:36:41;20.63;;;10.23;;
44222;SDS011;29895;48.804;9.386;2024-01-27T07:39:06;26.35;;;15.25;;
44222;SDS011;29895;48.804;9.386;2024-01-27T07:41:32;22.83;;;10.70;;
44222;SDS011;29895;48.804;9.386;2024-01-27T07:44:06;17.83;;;8.77;;
44222;SDS011;29895;48.804;9.386;2024-01-27T07:46:36;22.63;;;9.48;;
44222;SDS011;29895;48.804;9.386;2024-01-27T07:49:08;18.45;;;8.82;;
44222;SDS011;29895;48.804;9.386;2024-01-27T07:51:34;24.33;;;9.80;;
44222;SDS011;29895;48.804;9.386;2024-01-27T07:54:00;20.65;;;10.95;;
44222;SDS011;29895;48.804;9.386;2024-01-27T07:56:26;23.17;;;10.23;;
44222;SDS011;29895;48.804;9.386;2024-01-27T07:58:52;24.52;;;8.25;;
44222;SDS011;29895;48.804;9.386;2024-01-27T08:01:19;23.17;;;11.82;;
44222;SDS011;29895;48.804;9.386;2024-01-27T08:03:45;36.33;;;15.75;;
44222;SDS011;29895;48.804;9.386;2024-01-27T08:06:15;27.75;;;13.43;;
44222;SDS011;29895;48.804;9.386;2024-01-27T08:08:52;40.45;;;24.60;;
44222;SDS011;29895;48.804;9.386;2024-01-27T08:11:19;45.85;;;30.70;;
44222;SDS011;29895;48.804;9.386;2024-01-27T08:13:45;53.03;;;31.23;;
44222;SDS011;29895;48.804;9.386;2024-01-27T08:16:10;40.20;;;21.98;;
44222;SDS011;29895;48.804;9.386;2024-01-27T08:18:38;33.90;;;18.00;;
44222;SDS011;29895;48.804;9.386;2024-01-27T08:21:04;29.00;;;13.75;;
44222;SDS011;29895;48.804;9.386;2024-01-27T08:23:30;25.60;;;11.63;;
44222;SDS011;29895;48.804;9.386;2024-01-27T08:25:56;24.75;;;11.98;;
44222;SDS011;29895;48.804;9.386;2024-01-27T08:28:22;20.35;;;10.88;;
44222;SDS011;29895;48.804;9.386;2024-01-27T08:30:47;18.25;;;10.05;;
44222;SDS011;29895;48.804;9.386;2024-01-27T08:33:13;21.10;;;10.70;;
44222;SDS011;29895;48.804;9.386;2024-01-27T08:35:39;21.58;;;11.43;;
44222;SDS011;29895;48.804;9.386;2024-01-27T08:38:05;21.00;;;10.60;;
44222;SDS011;29895;48.804;9.386;2024-01-27T08:40:32;18.10;;;9.40;;
44222;SDS011;29895;48.804;9.386;2024-01-27T08:42:57;16.20;;;9.73;;
44222;SDS011;29895;48.804;9.386;2024-01-27T08:45:23;23.05;;;10.18;;
44222;SDS011;29895;48.804;9.386;2024-01-27T08:47:50;21.88;;;10.20;;
44222;SDS011;29895;48.804;9.386;2024-01-27T08:50:16;20.83;;;9.68;;
44222;SDS011;29895;48.804;9.386;2024-01-27T08:52:41;21.25;;;9.75;;
44222;SDS011;29895;48.804;9.386;2024-01-27T08:55:07;17.45;;;9.70;;
44222;SDS011;29895;48.804;9.386;2024-01-27T08:57:33;17.58;;;8.48;;
44222;SDS011;29895;48.804;9.386;2024-01-27T08:59:59;16.80;;;9.43;;
44222;SDS011;29895;48.804;9.386;2024-01-27T09:02:24;16.60;;;8.52;;
44222;SDS011;29895;48.804;9.386;2024-01-27T09:04:50;18.50;;;9.50;;
44222;SDS011;29895;48.804;9.386;2024-01-27T09:07:16;13.15;;;7.50;;
44222;SDS011;29895;48.804;9.386;2024-01-27T09:09:42;13.82;;;8.40;;
44222;SDS011;29895;48.804;9.386;2024-01-27T09:12:08;18.70;;;9.30;;
44222;SDS011;29895;48.804;9.386;2024-01-27T09:14:33;16.02;;;8.48;;
44222;SDS011;29895;48.804;9.386;2024-01-27T09:17:00;15.27;;;7.85;;
44222;SDS011;29895;48.804;9.386;2024-01-27T09:19:26;13.93;;;7.85;;
44222;SDS011;29895;48.804;9.386;2024-01-27T09:21:52;14.27;;;8.23;;
44222;SDS011;29895;48.804;9.386;2024-01-27T09:24:17;14.73;;;7.63;;
44222;SDS011;29895;48.804;9.386;2024-01-27T09:26:43;14.90;;;7.47;;
44222;SDS011;29895;48.804;9.386;2024-01-27T09:29:09;12.10;;;6.55;;
44222;SDS011;29895;48.804;9.386;2024-01-27T09:31:34;10.77;;;7.10;;
44222;SDS011;29895;48.804;9.386;2024-01-27T09:34:00;14.55;;;7.90;;
44222;SDS011;29895;48.804;9.386;2024-01-27T09:36:26;13.35;;;6.88;;
44222;SDS011;29895;48.804;9.386;2024-01-27T09:38:52;13.27;;;6.45;;
44222;SDS011;29895;48.804;9.386;2024-01-27T09:41:19;11.80;;;7.25;;
44222;SDS011;29895;48.804;9.386;2024-01-27T09:43:45;13.82;;;8.10;;
44222;SDS011;29895;48.804;9.386;2024-01-27T09:46:12;13.13;;;7.22;;
44222;SDS011;29895;48.804;9.386;2024-01-27T09:48:42;12.68;;;7.25;;
44222;SDS011;29895;48.804;9.386;2024-01-27T09:51:08;12.90;;;7.38;;
44222;SDS011;29895;48.804;9.386;2024-01-27T09:53:35;15.70;;;7.57;;
44222;SDS011;29895;48.804;9.386;2024-01-27T09:56:01;14.77;;;7.20;;
44222;SDS011;29895;48.804;9.386;2024-01-27T09:58:28;14.48;;;7.97;;
44222;SDS011;29895;48.804;9.386;2024-01-27T10:00:56;12.45;;;7.40;;
44222;SDS011;29895;48.804;9.386;2024-01-27T10:03:24;15.23;;;8.07;;
44222;SDS011;29895;48.804;9.386;2024-01-27T10:05:55;15.32;;;7.57;;
44222;SDS011;29895;48.804;9.386;2024-01-27T10:08:22;13.40;;;7.47;;
44222;SDS011;29895;48.804;9.386;2024-01-27T10:10:53;12.55;;;7.95;;
44222;SDS011;29895;48.804;9.386;2024-01-27T10:13:23;14.38;;;7.50;;
44222;SDS011;29895;48.804;9.386;2024-01-27T10:18:30;11.95;;;7.45;;
44222;SDS011;29895;48.804;9.386;2024-01-27T10:20:57;13.30;;;7.78;;
44222;SDS011;29895;48.804;9.386;2024-01-27T10:23:23;14.98;;;7.25;;
44222;SDS011;29895;48.804;9.386;2024-01-27T10:25:49;16.75;;;8.07;;
44222;SDS011;29895;48.804;9.386;2024-01-27T10:28:15;13.65;;;7.25;;
44222;SDS011;29895;48.804;9.386;2024-01-27T10:30:42;13.27;;;7.72;;
44222;SDS011;29895;48.804;9.386;2024-01-27T10:33:08;16.50;;;6.95;;
44222;SDS011;29895;48.804;9.386;2024-01-27T10:35:35;16.92;;;6.97;;
44222;SDS011;29895;48.804;9.386;2024-01-27T10:38:01;15.38;;;7.07;;
44222;SDS011;29895;48.804;9.386;2024-01-27T10:40:27;18.55;;;7.18;;
44222;SDS011;29895;48.804;9.386;2024-01-27T10:43:05;16.58;;;8.45;;
44222;SDS011;29895;48.804;9.386;2024-01-27T10:48:02;17.40;;;9.07;;
44222;SDS011;29895;48.804;9.386;2024-01-27T10:50:28;15.63;;;8.52;;
44222;SDS011;29895;48.804;9.386;2024-01-27T10:52:55;14.98;;;8.60;;
44222;SDS011;29895;48.804;9.386;2024-01-27T10:55:23;16.17;;;7.50;;
44222;SDS011;29895;48.804;9.386;2024-01-27T10:57:50;18.40;;;7.88;;
44222;SDS011;29895;48.804;9.386;2024-01-27T11:00:19;17.25;;;7.93;;
44222;SDS011;29895;48.804;9.386;2024-01-27T11:02:45;19.05;;;7.95;;
44222;SDS011;29895;48.804;9.386;2024-01-27T11:05:11;19.75;;;9.10;;
44222;SDS011;29895;48.804;9.386;2024-01-27T11:07:38;18.38;;;7.22;;
44222;SDS011;29895;48.804;9.386;2024-01-27T11:10:06;18.67;;;6.35;;
44222;SDS011;29895;48.804;9.386;2024-01-27T11:12:32;15.88;;;7.22;;
44222;SDS011;29895;48.804;9.386;2024-01-27T11:14:59;16.38;;;7.47;;
44222;SDS011;29895;48.804;9.386;2024-01-27T11:17:26;18.08;;;7.50;;
44222;SDS011;29895;48.804;9.386;2024-01-27T11:19:53;20.50;;;7.30;;
44222;SDS011;29895;48.804;9.386;2024-01-27T11:22:24;19.48;;;7.63;;
44222;SDS011;29895;48.804;9.386;2024-01-27T11:24:52;16.77;;;6.78;;
44222;SDS011;29895;48.804;9.386;2024-01-27T11:27:39;14.43;;;7.10;;
44222;SDS011;29895;48.804;9.386;2024-01-27T11:30:05;18.55;;;6.88;;
44222;SDS011;29895;48.804;9.386;2024-01-27T11:32:33;14.18;;;5.47;;
44222;SDS011;29895;48.804;9.386;2024-01-27T11:35:00;15.50;;;4.43;;
44222;SDS011;29895;48.804;9.386;2024-01-27T11:37:29;17.92;;;4.97;;
44222;SDS011;29895;48.804;9.386;2024-01-27T11:40:05;18.67;;;6.00;;
44222;SDS011;29895;48.804;9.386;2024-01-27T11:42:31;13.80;;;5.03;;
44222;SDS011;29895;48.804;9.386;2024-01-27T11:44:57;13.10;;;4.97;;
44222;SDS011;29895;48.804;9.386;2024-01-27T11:47:22;15.13;;;4.85;;
44222;SDS011;29895;48.804;9.386;2024-01-27T11:49:54;12.30;;;4.90;;
44222;SDS011;29895;48.804;9.386;2024-01-27T11:52:22;10.20;;;4.90;;
44222;SDS011;29895;48.804;9.386;2024-01-27T11:54:56;17.77;;;5.45;;
44222;SDS011;29895;48.804;9.386;2024-01-27T11:57:25;14.25;;;4.88;;
44222;SDS011;29895;48.804;9.386;2024-01-27T11:59:52;13.18;;;3.70;;
44222;SDS011;29895;48.804;9.386;2024-01-27T12:02:18;12.80;;;3.95;;
44222;SDS011;29895;48.804;9.386;2024-01-27T12:04:45;15.48;;;5.15;;
44222;SDS011;29895;48.804;9.386;2024-01-27T12:07:11;15.98;;;4.43;;
44222;SDS011;29895;48.804;9.386;2024-01-27T12:09:37;15.52;;;5.90;;
44222;SDS011;29895;48.804;9.386;2024-01-27T12:12:03;16.92;;;4.85;;
44222;SDS011;29895;48.804;9.386;2024-01-27T12:14:46;19.10;;;4.25;;
44222;SDS011;29895;48.804;9.386;2024-01-27T12:17:13;11.93;;;4.20;;
44222;SDS011;29895;48.804;9.386;2024-01-27T12:19:45;16.92;;;4.68;;
44222;SDS011;29895;48.804;9.386;2024-01-27T12:22:25;10.05;;;4.22;;
44222;SDS011;29895;48.804;9.386;2024-01-27T12:24:56;16.27;;;4.28;;
44222;SDS011;29895;48.804;9.386;2024-01-27T12:27:35;16.55;;;4.93;;
44222;SDS011;29895;48.804;9.386;2024-01-27T12:30:01;13.30;;;4.10;;
44222;SDS011;29895;48.804;9.386;2024-01-27T12:32:27;13.18;;;4.10;;
44222;SDS011;29895;48.804;9.386;2024-01-27T12:34:53;15.43;;;3.90;;
44222;SDS011;29895;48.804;9.386;2024-01-27T12:37:21;14.63;;;4.43;;
44222;SDS011;29895;48.804;9.386;2024-01-27T12:39:47;15.95;;;4.40;;
44222;SDS011;29895;48.804;9.386;2024-01-27T12:42:15;9.23;;;4.00;;
44222;SDS011;29895;48.804;9.386;2024-01-27T12:44:42;16.73;;;4.63;;
44222;SDS011;29895;48.804;9.386;2024-01-27T12:47:09;14.48;;;3.50;;
44222;SDS011;29895;48.804;9.386;2024-01-27T12:49:35;10.43;;;3.17;;
44222;SDS011;29895;48.804;9.386;2024-01-27T12:52:01;9.75;;;3.40;;
44222;SDS011;29895;48.804;9.386;2024-01-27T12:54:27;15.32;;;4.10;;
44222;SDS011;29895;48.804;9.386;2024-01-27T12:56:53;10.15;;;3.58;;
44222;SDS011;29895;48.804;9.386;2024-01-27T12:59:18;14.77;;;4.05;;
44222;SDS011;29895;48.804;9.386;2024-01-27T13:01:44;15.27;;;4.15;;
44222;SDS011;29895;48.804;9.386;2024-01-27T13:04:10;12.55;;;4.03;;
44222;SDS011;29895;48.804;9.386;2024-01-27T13:06:36;14.25;;;4.43;;
44222;SDS011;29895;48.804;9.386;2024-01-27T13:09:02;10.95;;;2.78;;
44222;SDS011;29895;48.804;9.386;2024-01-27T13:11:29;12.68;;;2.85;;
44222;SDS011;29895;48.804;9.386;2024-01-27T13:13:54;12.52;;;2.72;;
44222;SDS011;29895;48.804;9.386;2024-01-27T13:16:20;10.70;;;2.50;;
44222;SDS011;29895;48.804;9.386;2024-01-27T13:18:46;10.23;;;3.10;;
44222;SDS011;29895;48.804;9.386;2024-01-27T13:21:11;12.55;;;2.67;;
44222;SDS011;29895;48.804;9.386;2024-01-27T13:23:37;10.93;;;4.45;;
44222;SDS011;29895;48.804;9.386;2024-01-27T13:26:03;9.02;;;2.40;;
44222;SDS011;29895;48.804;9.386;2024-01-27T13:28:29;13.88;;;3.15;;
44222;SDS011;29895;48.804;9.386;2024-01-27T13:30:55;9.55;;;2.55;;
44222;SDS011;29895;48.804;9.386;2024-01-27T13:33:20;6.85;;;2.72;;
44222;SDS011;29895;48.804;9.386;2024-01-27T13:35:46;10.50;;;2.88;;
44222;SDS011;29895;48.804;9.386;2024-01-27T13:38:15;11.57;;;2.40;;
44222;SDS011;29895;48.804;9.386;2024-01-27T13:40:45;10.75;;;2.83;;
44222;SDS011;29895;48.804;9.386;2024-01-27T13:43:10;10.25;;;2.67;;
44222;SDS011;29895;48.804;9.386;2024-01-27T13:45:36;8.70;;;3.67;;
44222;SDS011;29895;48.804;9.386;2024-01-27T13:48:02;11.90;;;2.97;;
44222;SDS011;29895;48.804;9.386;2024-01-27T13:50:27;12.88;;;2.90;;
44222;SDS011;29895;48.804;9.386;2024-01-27T13:52:56;10.32;;;3.42;;
44222;SDS011;29895;48.804;9.386;2024-01-27T13:55:21;11.02;;;3.15;;
44222;SDS011;29895;48.804;9.386;2024-01-27T13:57:48;11.07;;;2.78;;
44222;SDS011;29895;48.804;9.386;2024-01-27T14:00:14;9.45;;;2.80;;
44222;SDS011;29895;48.804;9.386;2024-01-27T14:02:41;11.70;;;3.05;;
44222;SDS011;29895;48.804;9.386;2024-01-27T14:05:07;11.20;;;2.90;;
44222;SDS011;29895;48.804;9.386;2024-01-27T14:07:36;7.13;;;2.58;;
44222;SDS011;29895;48.804;9.386;2024-01-27T14:10:02;9.00;;;3.33;;
44222;SDS011;29895;48.804;9.386;2024-01-27T14:12:28;10.25;;;3.28;;
44222;SDS011;29895;48.804;9.386;2024-01-27T14:15:01;7.97;;;2.28;;
44222;SDS011;29895;48.804;9.386;2024-01-27T14:17:33;5.38;;;2.40;;
44222;SDS011;29895;48.804;9.386;2024-01-27T14:20:00;10.82;;;3.88;;
44222;SDS011;29895;48.804;9.386;2024-01-27T14:22:26;12.93;;;3.58;;
44222;SDS011;29895;48.804;9.386;2024-01-27T14:24:52;12.02;;;3.97;;
44222;SDS011;29895;48.804;9.386;2024-01-27T14:27:18;11.18;;;3.85;;
44222;SDS011;29895;48.804;9.386;2024-01-27T14:29:50;13.02;;;2.67;;
44222;SDS011;29895;48.804;9.386;2024-01-27T14:32:22;11.80;;;3.47;;
44222;SDS011;29895;48.804;9.386;2024-01-27T14:34:48;9.95;;;3.50;;
44222;SDS011;29895;48.804;9.386;2024-01-27T14:37:14;12.43;;;3.13;;
44222;SDS011;29895;48.804;9.386;2024-01-27T14:39:42;6.10;;;2.20;;
44222;SDS011;29895;48.804;9.386;2024-01-27T14:42:10;10.60;;;2.80;;